createdAt,value
2022-11-21T00:01:21.196Z,11.23
2022-11-21T00:03:49.177Z,10.77
2022-11-21T00:06:19.189Z,11.10
2022-11-21T00:08:47.109Z,11.52
2022-11-21T00:11:15.325Z,11.85
2022-11-21T00:13:43.761Z,11.10
2022-11-21T00:16:14.245Z,10.77
2022-11-21T00:18:43.920Z,10.48
2022-11-21T00:21:14.173Z,11.65
2022-11-21T00:23:43.638Z,11.50
2022-11-21T00:26:13.385Z,10.57
2022-11-21T00:28:41.425Z,10.70
2022-11-21T00:31:09.486Z,11.55
2022-11-21T00:33:38.981Z,11.02
2022-11-21T00:36:08.531Z,11.85
2022-11-21T00:38:36.634Z,12.07
2022-11-21T00:41:05.832Z,11.25
2022-11-21T00:43:33.980Z,11.82
2022-11-21T00:46:02.919Z,11.43
2022-11-21T00:48:32.228Z,11.20
2022-11-21T00:51:01.422Z,11.43
2022-11-21T00:53:30.340Z,11.23
2022-11-21T00:55:58.705Z,10.20
2022-11-21T00:58:28.519Z,11.00
2022-11-21T01:01:04.534Z,11.52
2022-11-21T01:03:34.905Z,11.73
2022-11-21T01:06:05.163Z,10.48
2022-11-21T01:08:33.651Z,11.50
2022-11-21T01:11:04.017Z,11.40
2022-11-21T01:13:33.378Z,12.05
2022-11-21T01:16:05.582Z,11.05
2022-11-21T01:18:34.021Z,11.23
2022-11-21T01:21:02.443Z,11.90
2022-11-21T01:23:30.695Z,12.00
2022-11-21T01:26:03.666Z,12.07
2022-11-21T01:28:33.477Z,11.60
2022-11-21T01:31:05.924Z,11.35
2022-11-21T01:33:34.114Z,12.07
2022-11-21T01:36:08.874Z,11.77
2022-11-21T01:38:37.045Z,11.73
2022-11-21T01:41:05.220Z,12.27
2022-11-21T01:43:35.035Z,12.18
2022-11-21T01:46:07.881Z,12.18
2022-11-21T01:48:41.611Z,11.32
2022-11-21T01:51:14.409Z,12.30
2022-11-21T01:53:46.553Z,11.77
2022-11-21T01:56:15.549Z,12.57
2022-11-21T01:58:47.441Z,12.27
2022-11-21T02:01:16.074Z,12.00
2022-11-21T02:03:46.694Z,11.73
2022-11-21T02:06:15.040Z,12.95
2022-11-21T02:08:45.010Z,12.15
2022-11-21T02:11:22.940Z,12.77
2022-11-21T02:13:52.402Z,12.10
2022-11-21T02:16:20.423Z,12.63
2022-11-21T02:18:48.382Z,12.63
2022-11-21T02:21:27.664Z,13.07
2022-11-21T02:24:01.987Z,11.68
2022-11-21T02:26:31.633Z,12.93
2022-11-21T02:28:59.615Z,13.02
2022-11-21T02:31:27.495Z,13.38
2022-11-21T02:33:55.368Z,13.00
2022-11-21T02:36:38.250Z,12.52
2022-11-21T02:39:07.870Z,12.20
2022-11-21T02:41:41.669Z,13.45
2022-11-21T02:44:16.949Z,12.60
2022-11-21T02:46:49.980Z,12.18
2022-11-21T02:51:49.344Z,13.45
2022-11-21T02:54:17.328Z,12.38
2022-11-21T02:56:46.625Z,12.38
2022-11-21T02:59:14.654Z,12.95
2022-11-21T03:01:42.598Z,12.18
2022-11-21T03:04:10.593Z,12.57
2022-11-21T03:06:38.536Z,13.30
2022-11-21T03:09:06.491Z,12.73
2022-11-21T03:11:34.381Z,14.15
2022-11-21T03:14:03.695Z,14.40
2022-11-21T03:16:31.709Z,14.40
2022-11-21T03:18:59.810Z,13.98
2022-11-21T03:21:27.748Z,12.95
2022-11-21T03:23:55.671Z,14.52
2022-11-21T03:26:23.735Z,12.73
2022-11-21T03:28:51.653Z,14.40
2022-11-21T03:31:20.990Z,13.43
2022-11-21T03:33:49.052Z,14.10
2022-11-21T03:36:16.906Z,12.93
2022-11-21T03:38:44.812Z,12.55
2022-11-21T03:41:26.615Z,14.73
2022-11-21T03:43:54.752Z,13.82
2022-11-21T03:46:24.396Z,14.32
2022-11-21T03:48:52.391Z,12.43
2022-11-21T03:51:20.748Z,12.38
2022-11-21T03:53:48.786Z,12.60
2022-11-21T03:56:17.188Z,13.65
2022-11-21T03:58:45.961Z,13.50
2022-11-21T04:01:15.079Z,13.18
2022-11-21T04:03:44.987Z,13.00
2022-11-21T04:06:14.820Z,14.00
2022-11-21T04:08:42.735Z,13.20
2022-11-21T04:11:11.056Z,12.85
2022-11-21T04:13:39.331Z,11.77
2022-11-21T04:16:07.786Z,12.45
2022-11-21T04:18:35.849Z,12.38
2022-11-21T04:21:08.115Z,12.60
2022-11-21T04:23:36.329Z,11.37
2022-11-21T04:26:04.389Z,13.05
2022-11-21T04:28:32.543Z,11.82
2022-11-21T04:31:10.005Z,12.80
2022-11-21T04:33:39.138Z,13.07
2022-11-21T04:36:09.103Z,13.02
2022-11-21T04:38:37.428Z,12.27
2022-11-21T04:41:05.786Z,12.63
2022-11-21T04:43:33.717Z,13.40
2022-11-21T04:46:01.581Z,12.52
2022-11-21T04:48:29.479Z,13.65
2022-11-21T04:50:57.306Z,14.52
2022-11-21T04:53:26.591Z,14.15
2022-11-21T04:55:54.626Z,13.13
2022-11-21T04:58:22.541Z,13.77
2022-11-21T05:00:50.545Z,13.85
2022-11-21T05:03:18.454Z,14.07
2022-11-21T05:05:46.429Z,14.68
2022-11-21T05:08:14.406Z,14.02
2022-11-21T05:11:02.009Z,13.82
2022-11-21T05:13:29.983Z,13.00
2022-11-21T05:15:58.863Z,14.13
2022-11-21T05:18:26.862Z,13.63
2022-11-21T05:20:54.948Z,13.70
2022-11-21T05:23:22.893Z,14.05
2022-11-21T05:25:52.153Z,14.60
2022-11-21T05:28:20.088Z,12.77
2022-11-21T05:30:48.036Z,15.15
2022-11-21T05:33:16.101Z,14.75
2022-11-21T05:35:44.182Z,14.32
2022-11-21T05:38:12.589Z,12.55
2022-11-21T05:40:40.652Z,13.68
2022-11-21T05:43:29.714Z,14.15
2022-11-21T05:45:57.726Z,12.82
2022-11-21T05:48:25.669Z,12.73
2022-11-21T05:50:53.691Z,13.68
2022-11-21T05:53:21.810Z,14.10
2022-11-21T05:55:49.811Z,12.88
2022-11-21T05:58:19.078Z,14.05
2022-11-21T06:00:47.230Z,13.50
2022-11-21T06:03:30.726Z,14.82
2022-11-21T06:08:32.844Z,13.57
2022-11-21T06:11:00.771Z,14.48
2022-11-21T06:13:30.380Z,14.63
2022-11-21T06:16:01.574Z,14.35
2022-11-21T06:18:32.009Z,14.73
2022-11-21T06:21:03.082Z,14.45
2022-11-21T06:23:31.071Z,14.02
2022-11-21T06:25:59.369Z,13.52
2022-11-21T06:28:27.484Z,14.68
2022-11-21T06:30:56.715Z,14.90
2022-11-21T06:33:24.587Z,15.57
2022-11-21T06:35:52.483Z,15.93
2022-11-21T06:38:20.430Z,15.75
2022-11-21T06:40:48.287Z,17.80
2022-11-21T06:43:16.187Z,15.80
2022-11-21T06:45:44.090Z,16.42
2022-11-21T06:48:13.372Z,16.40
2022-11-21T06:50:41.446Z,16.02
2022-11-21T06:53:09.364Z,15.60
2022-11-21T06:55:37.317Z,14.57
2022-11-21T06:58:05.302Z,14.57
2022-11-21T07:00:33.197Z,15.73
2022-11-21T07:03:03.531Z,15.73
2022-11-21T07:05:32.964Z,14.43
2022-11-21T07:08:01.092Z,14.45
2022-11-21T07:10:29.515Z,15.55
2022-11-21T07:13:16.460Z,15.55
2022-11-21T07:15:44.900Z,14.35
2022-11-21T07:18:13.530Z,15.20
2022-11-21T07:20:42.828Z,14.10
2022-11-21T07:23:11.078Z,15.00
2022-11-21T07:25:39.615Z,14.98
2022-11-21T07:28:08.752Z,16.08
2022-11-21T07:30:37.490Z,14.13
2022-11-21T07:33:07.228Z,14.90
2022-11-21T07:35:35.642Z,14.25
2022-11-21T07:38:05.771Z,15.52
2022-11-21T07:40:34.777Z,16.23
2022-11-21T07:43:07.940Z,15.77
2022-11-21T07:45:39.029Z,16.65
2022-11-21T07:48:08.231Z,16.30
2022-11-21T07:50:36.169Z,17.35
2022-11-21T07:53:07.177Z,17.98
2022-11-21T07:55:40.396Z,16.08
2022-11-21T07:58:11.216Z,15.30
2022-11-21T08:00:40.786Z,16.38
2022-11-21T08:03:08.673Z,16.20
2022-11-21T08:05:37.697Z,16.58
2022-11-21T08:08:07.869Z,15.38
2022-11-21T08:10:38.593Z,16.23
2022-11-21T08:13:06.836Z,15.52
2022-11-21T08:15:34.757Z,17.38
2022-11-21T08:18:08.632Z,16.05
2022-11-21T08:20:36.659Z,16.80
2022-11-21T08:23:04.662Z,17.15
2022-11-21T08:25:34.230Z,16.35
2022-11-21T08:28:02.758Z,15.95
2022-11-21T08:30:30.766Z,16.73
2022-11-21T08:32:58.814Z,14.32
2022-11-21T08:35:26.762Z,15.70
2022-11-21T08:37:57.261Z,18.20
2022-11-21T08:40:25.667Z,15.73
2022-11-21T08:42:59.271Z,15.48
2022-11-21T08:45:27.220Z,14.13
2022-11-21T08:47:56.147Z,14.77
2022-11-21T08:50:25.113Z,15.18
2022-11-21T08:52:53.206Z,16.77
2022-11-21T08:55:23.122Z,16.05
2022-11-21T08:57:51.018Z,16.75
2022-11-21T09:00:20.683Z,18.35
2022-11-21T09:02:48.577Z,18.50
2022-11-21T09:05:16.700Z,17.02
2022-11-21T09:07:44.680Z,16.88
2022-11-21T09:10:12.820Z,16.40
2022-11-21T09:12:40.780Z,16.05
2022-11-21T09:15:29.373Z,16.60
2022-11-21T09:18:04.414Z,14.73
2022-11-21T09:20:32.984Z,14.80
2022-11-21T09:23:05.243Z,14.57
2022-11-21T09:25:34.245Z,14.97
2022-11-21T09:28:03.676Z,14.60
2022-11-21T09:30:31.838Z,14.75
2022-11-21T09:33:02.722Z,14.43
2022-11-21T09:35:31.419Z,13.35
2022-11-21T09:37:59.578Z,13.88
2022-11-21T09:40:29.979Z,13.27
2022-11-21T09:43:14.770Z,12.27
2022-11-21T09:45:47.492Z,11.57
2022-11-21T09:48:20.319Z,10.05
2022-11-21T09:50:53.939Z,10.80
2022-11-21T09:53:26.078Z,11.68
2022-11-21T09:55:59.079Z,11.50
2022-11-21T09:58:32.451Z,11.10
2022-11-21T10:01:00.606Z,12.75
2022-11-21T10:03:32.716Z,12.38
2022-11-21T10:06:04.941Z,12.93
2022-11-21T10:08:42.911Z,11.50
2022-11-21T10:11:21.109Z,12.48
2022-11-21T10:14:03.954Z,13.38
2022-11-21T10:16:42.582Z,11.05
2022-11-21T10:19:41.351Z,13.63
2022-11-21T10:22:35.458Z,13.80
2022-11-21T10:25:12.704Z,14.65
2022-11-21T10:27:48.816Z,13.48
2022-11-21T10:30:18.453Z,11.75
2022-11-21T10:32:51.764Z,11.68
2022-11-21T10:35:25.004Z,11.77
2022-11-21T10:37:54.464Z,11.05
2022-11-21T10:40:33.365Z,10.20
2022-11-21T10:43:26.402Z,10.02
2022-11-21T10:45:54.013Z,11.68
2022-11-21T10:48:21.982Z,10.57
2022-11-21T10:51:06.877Z,11.43
2022-11-21T10:53:52.446Z,10.48
2022-11-21T10:56:22.954Z,9.55
2022-11-21T10:58:52.971Z,8.77
2022-11-21T11:01:23.071Z,11.05
2022-11-21T11:04:26.834Z,9.93
2022-11-21T11:06:57.416Z,9.93
2022-11-21T11:09:29.228Z,8.43
2022-11-21T11:12:24.015Z,8.60
2022-11-21T11:14:53.733Z,9.85
2022-11-21T11:17:30.700Z,9.27
2022-11-21T11:20:03.510Z,10.38
2022-11-21T11:22:32.773Z,9.57
2022-11-21T11:25:01.273Z,9.68
2022-11-21T11:27:30.431Z,9.68
2022-11-21T11:29:58.302Z,10.93
2022-11-21T11:32:26.683Z,10.77
2022-11-21T11:35:01.123Z,11.18
2022-11-21T11:37:40.447Z,10.15
2022-11-21T11:40:20.176Z,11.60
2022-11-21T11:43:20.704Z,10.90
2022-11-21T11:46:24.797Z,10.27
2022-11-21T11:49:19.237Z,9.52
2022-11-21T11:51:48.242Z,8.55
2022-11-21T11:54:21.878Z,7.82
2022-11-21T11:56:50.664Z,8.13
2022-11-21T11:59:23.729Z,7.28
2022-11-21T12:01:57.040Z,7.70
2022-11-21T12:04:26.999Z,7.72
2022-11-21T12:09:55.809Z,7.32
2022-11-21T12:12:31.786Z,7.72
2022-11-21T12:15:30.215Z,7.68
2022-11-21T12:18:11.451Z,6.50
2022-11-21T12:20:49.737Z,6.85
2022-11-21T12:23:18.835Z,6.50
2022-11-21T12:25:59.763Z,7.50
2022-11-21T12:28:36.432Z,6.38
2022-11-21T12:31:14.045Z,7.28
2022-11-21T12:33:56.473Z,7.93
2022-11-21T12:36:33.954Z,7.93
2022-11-21T12:39:37.508Z,8.23
2022-11-21T12:42:31.824Z,7.07
2022-11-21T12:45:11.778Z,7.22
2022-11-21T12:48:19.045Z,6.88
2022-11-21T12:51:11.814Z,7.63
2022-11-21T12:54:06.334Z,7.93
2022-11-21T12:56:44.405Z,7.85
2022-11-21T12:59:16.157Z,8.20
2022-11-21T13:01:51.640Z,9.02
2022-11-21T13:04:24.910Z,8.43
2022-11-21T13:06:55.011Z,8.65
2022-11-21T13:09:27.468Z,9.05
2022-11-21T13:12:01.765Z,9.23
2022-11-21T13:14:39.224Z,9.30
2022-11-21T13:17:28.161Z,8.77
2022-11-21T13:20:00.397Z,8.55
2022-11-21T13:22:56.530Z,9.03
2022-11-21T13:25:39.274Z,9.73
2022-11-21T13:28:33.613Z,9.15
2022-11-21T13:31:04.889Z,10.30
2022-11-21T13:33:51.286Z,9.35
2022-11-21T13:36:42.910Z,9.35
2022-11-21T13:39:38.812Z,10.18
2022-11-21T13:42:29.545Z,10.02
2022-11-21T13:44:58.285Z,10.30
2022-11-21T13:48:00.402Z,10.75
2022-11-21T13:50:48.601Z,9.48
2022-11-21T13:53:45.801Z,10.40
2022-11-21T13:56:27.067Z,10.43
2022-11-21T13:59:08.018Z,9.95
2022-11-21T14:01:56.474Z,9.18
2022-11-21T14:04:58.293Z,9.27
2022-11-21T14:07:31.020Z,8.77
2022-11-21T14:10:01.696Z,10.05
2022-11-21T14:12:37.133Z,9.85
2022-11-21T14:15:23.886Z,9.45
2022-11-21T14:17:54.515Z,9.65
2022-11-21T14:20:26.087Z,11.18
2022-11-21T14:23:04.323Z,11.85
2022-11-21T14:25:37.812Z,10.95
2022-11-21T14:28:09.658Z,10.88
2022-11-21T14:30:39.352Z,11.73
2022-11-21T14:33:28.878Z,11.45
2022-11-21T14:36:01.459Z,9.73
2022-11-21T14:38:31.555Z,11.52
2022-11-21T14:41:29.639Z,10.18
2022-11-21T14:44:16.216Z,10.98
2022-11-21T14:46:45.425Z,10.43
2022-11-21T14:49:29.319Z,9.77
2022-11-21T14:52:13.777Z,10.68
2022-11-21T14:55:15.004Z,10.40
2022-11-21T15:00:07.629Z,10.65
2022-11-21T15:02:36.047Z,11.20
2022-11-21T15:05:06.664Z,11.95
2022-11-21T15:07:42.438Z,11.85
2022-11-21T15:10:30.256Z,11.60
2022-11-21T15:13:02.271Z,11.95
2022-11-21T15:15:34.439Z,10.68
2022-11-21T15:20:54.682Z,11.38
2022-11-21T15:23:32.486Z,11.13
2022-11-21T15:26:01.822Z,12.45
2022-11-21T15:28:30.675Z,11.40
2022-11-21T15:31:18.727Z,11.95
2022-11-21T15:37:03.741Z,12.25
2022-11-21T15:39:35.834Z,11.90
2022-11-21T15:42:28.747Z,11.77
2022-11-21T15:44:59.497Z,10.90
2022-11-21T15:47:27.347Z,12.60
2022-11-21T15:49:55.394Z,11.70
2022-11-21T15:52:23.591Z,13.10
2022-11-21T15:54:52.959Z,13.20
2022-11-21T15:57:13.109Z,11.47
2022-11-21T15:57:22.102Z,13.50
2022-11-21T15:59:50.814Z,13.88
2022-11-21T16:02:19.034Z,13.15
2022-11-21T16:04:46.949Z,12.77
2022-11-21T16:07:14.862Z,12.63
2022-11-21T16:09:44.832Z,12.10
2022-11-21T16:12:14.218Z,12.68
2022-11-21T16:14:42.154Z,11.77
2022-11-21T16:17:10.131Z,12.10
2022-11-21T16:19:38.083Z,12.73
2022-11-21T16:22:05.976Z,13.00
2022-11-21T16:24:33.977Z,12.77
2022-11-21T16:27:02.464Z,13.98
2022-11-21T16:29:31.893Z,13.50
2022-11-21T16:31:59.925Z,13.40
2022-11-21T16:34:28.439Z,13.25
2022-11-21T16:36:56.481Z,12.40
2022-11-21T16:39:24.292Z,12.77
2022-11-21T16:41:52.194Z,12.38
2022-11-21T16:44:20.048Z,12.05
2022-11-21T16:46:51.650Z,11.35
2022-11-21T16:49:20.232Z,11.27
2022-11-21T16:51:48.818Z,12.10
2022-11-21T16:54:16.712Z,12.13
2022-11-21T16:56:44.731Z,11.88
2022-11-21T16:59:12.618Z,12.18
2022-11-21T17:01:40.634Z,12.73
2022-11-21T17:04:15.641Z,13.70
2022-11-21T17:06:47.051Z,13.25
2022-11-21T17:09:15.336Z,13.02
2022-11-21T17:11:43.288Z,13.52
2022-11-21T17:14:12.828Z,13.15
2022-11-21T17:16:41.655Z,13.55
2022-11-21T17:19:13.302Z,13.23
2022-11-21T17:21:41.443Z,13.77
2022-11-21T17:24:09.431Z,13.20
2022-11-21T17:26:38.533Z,13.23
2022-11-21T17:29:06.407Z,13.18
2022-11-21T17:31:34.499Z,12.10
2022-11-21T17:34:02.875Z,14.63
2022-11-21T17:36:34.478Z,13.52
2022-11-21T17:39:02.795Z,13.68
2022-11-21T17:41:30.757Z,13.45
2022-11-21T17:43:59.682Z,13.20
2022-11-21T17:46:28.762Z,14.52
2022-11-21T17:48:59.138Z,14.77
2022-11-21T17:51:29.858Z,14.32
2022-11-21T17:53:59.865Z,15.38
2022-11-21T17:56:30.229Z,15.18
2022-11-21T17:58:58.227Z,15.02
2022-11-21T18:01:26.833Z,16.00
2022-11-21T18:03:57.285Z,15.93
2022-11-21T18:06:26.157Z,13.75
2022-11-21T18:08:54.179Z,13.52
2022-11-21T18:11:23.726Z,14.43
2022-11-21T18:13:51.951Z,14.45
2022-11-21T18:16:22.201Z,13.77
2022-11-21T18:18:51.513Z,13.65
2022-11-21T18:21:21.578Z,14.85
2022-11-21T18:23:50.266Z,14.27
2022-11-21T18:26:21.157Z,14.38
2022-11-21T18:29:13.087Z,14.27
2022-11-21T18:31:42.837Z,14.73
2022-11-21T18:34:12.043Z,15.00
2022-11-21T18:36:39.996Z,15.23
2022-11-21T18:39:14.123Z,15.35
2022-11-21T18:41:42.835Z,14.77
2022-11-21T18:44:20.156Z,15.57
2022-11-21T18:46:49.762Z,15.32
2022-11-21T18:49:18.173Z,14.18
2022-11-21T18:51:46.543Z,15.88
2022-11-21T18:54:14.452Z,16.55
2022-11-21T18:56:42.385Z,15.75
2022-11-21T18:59:10.302Z,14.93
2022-11-21T19:01:40.433Z,14.75
2022-11-21T19:04:09.458Z,15.65
2022-11-21T19:06:37.464Z,15.13
2022-11-21T19:09:05.646Z,14.43
2022-11-21T19:11:33.523Z,15.48
2022-11-21T19:14:01.541Z,14.70
2022-11-21T19:16:33.891Z,14.60
2022-11-21T19:21:54.506Z,15.07
2022-11-21T19:24:22.441Z,14.73
2022-11-21T19:26:51.123Z,15.13
2022-11-21T19:29:19.522Z,14.00
2022-11-21T19:31:47.569Z,16.92
2022-11-21T19:34:17.570Z,15.35
2022-11-21T19:36:45.990Z,14.45
2022-11-21T19:39:23.389Z,15.13
2022-11-21T19:41:51.465Z,15.18
2022-11-21T19:44:19.792Z,15.88
2022-11-21T19:46:47.992Z,14.45
2022-11-21T19:49:19.301Z,14.20
2022-11-21T19:51:47.399Z,15.23
2022-11-21T19:54:16.306Z,13.15
2022-11-21T19:56:44.320Z,13.90
2022-11-21T19:59:13.784Z,13.60
2022-11-21T20:01:41.976Z,12.98
2022-11-21T20:04:11.762Z,13.77
2022-11-21T20:06:45.841Z,12.25
2022-11-21T20:09:15.801Z,12.82
2022-11-21T20:11:45.401Z,12.63
2022-11-21T20:14:21.084Z,12.85
2022-11-21T20:16:50.232Z,13.10
2022-11-21T20:19:20.520Z,12.68
2022-11-21T20:21:49.804Z,13.10
2022-11-21T20:24:18.206Z,11.65
2022-11-21T20:26:46.581Z,12.95
2022-11-21T20:29:15.601Z,13.57
2022-11-21T20:31:44.318Z,12.45
2022-11-21T20:34:14.080Z,12.73
2022-11-21T20:36:42.767Z,13.65
2022-11-21T20:39:15.160Z,12.13
2022-11-21T20:41:43.406Z,14.00
2022-11-21T20:47:03.331Z,11.52
2022-11-21T20:49:31.840Z,12.07
2022-11-21T20:54:49.094Z,11.65
2022-11-21T20:57:16.968Z,11.15
2022-11-21T20:59:44.900Z,10.55
2022-11-21T21:02:14.029Z,11.07
2022-11-21T21:04:42.467Z,10.98
2022-11-21T21:07:10.842Z,11.02
2022-11-21T21:09:38.834Z,10.93
2022-11-21T21:12:08.425Z,10.20
2022-11-21T21:14:36.435Z,11.15
2022-11-21T21:17:04.369Z,10.07
2022-11-21T21:19:32.605Z,9.93
2022-11-21T21:22:00.629Z,10.45
2022-11-21T21:24:28.809Z,10.13
2022-11-21T21:26:56.703Z,9.43
2022-11-21T21:29:25.956Z,9.73
2022-11-21T21:31:54.473Z,9.40
2022-11-21T21:34:23.240Z,10.00
2022-11-21T21:36:51.712Z,10.00
2022-11-21T21:39:19.837Z,10.20
2022-11-21T21:41:48.133Z,9.25
2022-11-21T21:44:16.911Z,10.10
2022-11-21T21:46:46.499Z,9.43
2022-11-21T21:49:14.438Z,9.70
2022-11-21T21:51:42.331Z,9.23
2022-11-21T21:54:17.458Z,9.82
2022-11-21T21:56:46.755Z,8.93
2022-11-21T21:59:15.356Z,11.30
2022-11-21T22:01:43.885Z,9.93
2022-11-21T22:04:13.629Z,10.27
2022-11-21T22:06:41.718Z,10.85
2022-11-21T22:09:09.663Z,10.07
2022-11-21T22:11:39.215Z,9.88
2022-11-21T22:14:08.962Z,10.80
2022-11-21T22:16:36.968Z,11.05
2022-11-21T22:19:04.796Z,9.93
2022-11-21T22:21:35.973Z,11.18
2022-11-21T22:26:53.527Z,10.55
2022-11-21T22:29:21.375Z,10.80
2022-11-21T22:31:49.306Z,10.73
2022-11-21T22:34:17.198Z,11.30
2022-11-21T22:36:46.854Z,10.15
2022-11-21T22:39:15.318Z,9.30
2022-11-21T22:41:43.227Z,10.88
2022-11-21T22:44:11.400Z,11.88
2022-11-21T22:46:39.413Z,11.25
2022-11-21T22:49:07.341Z,11.02
2022-11-21T22:51:35.301Z,11.07
2022-11-21T22:54:04.584Z,12.80
2022-11-21T22:56:32.439Z,13.43
2022-11-21T22:59:00.354Z,11.95
2022-11-21T23:01:28.309Z,11.80
2022-11-21T23:03:56.599Z,12.65
2022-11-21T23:06:26.109Z,12.52
2022-11-21T23:08:55.342Z,12.70
2022-11-21T23:11:26.229Z,12.27
2022-11-21T23:13:55.724Z,13.27
2022-11-21T23:16:24.281Z,13.25
2022-11-21T23:18:53.765Z,12.85
2022-11-21T23:21:22.052Z,12.10
2022-11-21T23:23:50.064Z,13.18
2022-11-21T23:26:18.372Z,12.35
2022-11-21T23:28:47.639Z,12.75
2022-11-21T23:31:15.512Z,14.15
2022-11-21T23:33:43.537Z,13.15
2022-11-21T23:36:11.412Z,12.93
2022-11-21T23:38:39.313Z,12.75
2022-11-21T23:41:07.236Z,13.60
2022-11-21T23:43:35.255Z,13.80
2022-11-21T23:46:04.571Z,13.05
2022-11-21T23:48:32.448Z,12.73
2022-11-21T23:51:00.321Z,11.93
2022-11-21T23:53:28.171Z,12.80
2022-11-21T23:55:56.043Z,13.05
2022-11-21T23:58:23.875Z,11.70
